ADDS METAR Data INFO
IDs: Format: Raw Decoded Include TAF

Data at: 1533 UTC 18 Jun 2018

KCIU 181530Z AUTO 35013KT 5SM -RA BR SCT004 OVC011 18/17 A2987 RMK AO2 RAB04 PNO $
KCIU 181456Z AUTO 29007KT 6SM BR OVC002 19/19 A2986 RMK AO2 RAB29E50 SLP128 6//// T01940194 50004 PNO $
KCIU 181453Z AUTO 29008KT 5SM BR OVC002 19/19 A2986 RMK AO2 RAB29E50 PNO $
KCIU 181444Z AUTO 31009KT 2SM -RA BR OVC002 19/19 A2986 RMK AO2 RAB29 PNO $
KCIU 181421Z AUTO 30007KT 1 3/4SM BR OVC004 20/19 A2985 RMK AO2 PNO $
KCIU 181356Z AUTO 27007KT 10SM OVC002 20/19 A2985 RMK AO2 RAE08B37E48 SLP123 T02000194 PNO $
KCIU 181256Z AUTO 26006KT 8SM -RA OVC002 19/19 A2985 RMK AO2 SLP122 T01940189 PNO $
KCIU 181156Z AUTO 26005KT 9SM -RA OVC002 19/19 A2985 RMK AO2 RAB33 SLP120 6//// 7//// T01940189 10206 20189 51006 PNO $
KCIU 181056Z AUTO 25006KT 7SM OVC002 19/19 A2984 RMK AO2 SLP118 T01890189 PNO $
KCIU 180956Z AUTO 27006KT 9SM OVC002 19/19 A2984 RMK AO2 SLP118 T01890189 PNO $
KCIU 180856Z AUTO 27008KT 9SM OVC002 19/19 A2983 RMK AO2 SLP113 6//// T01940189 53000 PNO $
KCIU 180810Z AUTO 26007KT 2SM BR OVC002 19/19 A2982 RMK AO2 PNO $
KCIU 180804Z AUTO 27004KT 1SM BR OVC002 19/19 A2982 RMK AO2 PNO $
KCIU 180756Z AUTO 26004KT 1/2SM FG OVC002 19/19 A2982 RMK AO2 SLP110 T01940189 PNO $
KCIU 180749Z AUTO 27003KT 1/2SM FG OVC002 19/19 A2982 RMK AO2 PNO $
KCIU 180745Z AUTO 26003KT 1SM BR BKN002 OVC007 19/19 A2981 RMK AO2 CIG 001V005 PNO $
KCIU 180737Z AUTO 24003KT 2SM BR OVC002 19/19 A2981 RMK AO2 VIS 1 1/2V3 CIG 001V005 PNO $
KCIU 180722Z AUTO 21004KT 1SM BR OVC002 19/19 A2980 RMK AO2 CIG 001V005 PNO $
KCIU 180715Z AUTO 22003KT 2 1/2SM BR OVC002 19/19 A2981 RMK AO2 VIS 2V3 CIG 001V005 PNO $
KCIU 180656Z AUTO 24003KT 5SM BR OVC004 20/19 A2981 RMK AO2 SLP107 T02000194 PNO $
KCIU 180601Z AUTO 24005KT 8SM BKN004 BKN008 BKN120 21/20 A2983 RMK AO2 CIG 003V007 PNO $
KCIU 180556Z AUTO 25004KT 8SM FEW004 SCT008 BKN120 21/20 A2983 RMK AO2 SLP115 6//// T02060200 10267 20200 56012 PNO $
KCIU 180551Z AUTO VRB03KT 9SM FEW008 BKN120 21/20 A2983 RMK AO2 PNO $
KCIU 180456Z AUTO 16005KT 6SM BR BKN110 21/20 A2984 RMK AO2 RAE53 SLP118 T02060200 402940156 PNO $
KCIU 180356Z AUTO 18005KT 8SM -RA FEW042 BKN090 OVC110 20/20 A2986 RMK AO2 LTG DSNT S RAB11 SLP129 T02000200 PNO $
KCIU 180317Z AUTO 00000KT 10SM -RA SCT011 BKN050 21/19 A2986 RMK AO2 RAB11 P0000
KCIU 180256Z AUTO 34004KT 10SM BKN011 OVC026 22/19 A2987 RMK AO2 SLP131 T02170194 50007 TSNO
KCIU 180253Z AUTO 33005KT 10SM BKN013 OVC026 22/20 A2987 RMK AO2
KCIU 180226Z AUTO 31010KT 10SM BKN024 OVC055 23/20 A2988 RMK AO2
KCIU 180156Z AUTO 28014KT 10SM OVC055 23/20 A2988 RMK AO2 LTG DSNT N AND NW SLP134 T02280200
KCIU 180056Z AUTO 25006KT 10SM SCT050 25/22 A2984 RMK AO2 LTG DSNT NE SLP121 T02500217
KCIU 172356Z AUTO 25005KT 10SM BKN045 OVC085 27/22 A2984 RMK AO2 SLP119 T02670217 10294 20244 56009
KCIU 172256Z AUTO 25005KT 10SM BKN085 28/22 A2984 RMK AO2 SLP120 T02830222
KCIU 172156Z AUTO 22009G17KT 10SM CLR 29/23 A2986 RMK AO2 SLP126 T02890228
KCIU 172056Z AUTO 22005KT 10SM FEW023 28/22 A2987 RMK AO2 SLP129 T02830222 58002
KCIU 172036Z AUTO 25007KT 10SM SCT021 28/22 A2988 RMK AO2
KCIU 172009Z AUTO 24007KT 10SM BKN017 BKN090 27/22 A2988 RMK AO2
KCIU 171956Z AUTO 24007KT 10SM SCT017 BKN090 27/22 A2989 RMK AO2 SLP136 T02670222
KCIU 171934Z AUTO VRB05KT 10SM SCT015 27/22 A2989 RMK AO2
KCIU 171908Z AUTO 24008KT 210V280 10SM BKN015 BKN095 27/22 A2990 RMK AO2
KCIU 171856Z AUTO 24009KT 210V280 10SM BKN013 BKN095 27/22 A2990 RMK AO2 SLP139 T02670222
KCIU 171836Z AUTO 20008G17KT 10SM OVC011 25/22 A2989 RMK AO2
KCIU 171756Z AUTO 19009G15KT 10SM OVC009 24/22 A2988 RMK AO2 SLP135 60000 T02390217 10244 20183 58023
KCIU 171737Z AUTO 19010KT 170V230 10SM OVC011 23/21 A2988 RMK AO2 CIG 009V013
KCIU 171656Z AUTO 17007KT 10SM BKN009 23/21 A2990 RMK AO2 SLP141 T02330211
KCIU 171623Z AUTO 19008KT 10SM SCT003 BKN009 OVC018 23/21 A2991 RMK AO2
KCIU 171556Z AUTO 15009KT 10SM BKN003 OVC015 21/20 A2993 RMK AO2 SLP155 T02110200
KCIU 171547Z AUTO 14007KT 10SM BKN003 OVC015 20/19 A2994 RMK AO2
KCIU 171520Z AUTO 14011KT 8SM SCT003 OVC015 19/18 A2995 RMK AO2 LTG DSNT E AND SE
KCIU 171456Z AUTO 14007KT 7SM OVC003 18/18 A2995 RMK AO2 LTG DSNT NE-S RAB21E47 SLP160 P0000 60000 T01830178 55001
KCIU 171403Z AUTO 10007KT 5SM BR BKN003 BKN021 OVC080 18/18 A2995 RMK AO2 LTG DSNT S AND NW
KCIU 171356Z AUTO 10008KT 5SM BR SCT003 SCT021 BKN049 18/18 A2994 RMK AO2 LTG DSNT NW RAE28 SLP159 P0000 T01830178
KCIU 171327Z AUTO 10005KT 6SM -RA BR SCT002 SCT048 19/18 A2994 RMK AO2 LTG DSNT SW P0000
KCIU 171256Z AUTO 16007KT 6SM -RA BR BKN002 BKN065 BKN075 18/18 A2993 RMK AO2 LTG DSNT E AND W AND NW TSE1158B00E21RAE17B44 SLP155 P0000 T01830183
KCIU 171249Z AUTO 14006KT 5SM -RA BR SCT002 BKN055 BKN070 19/19 A2994 RMK AO2 LTG DSNT E AND W TSE1158B00E21RAE17B44 P0000
KCIU 171235Z AUTO 18005KT 9SM SCT026 BKN055 OVC070 20/20 A2994 RMK AO2 LTG DSNT E AND SE AND W TSE1158B00E21RAE17 P0000
KCIU 171227Z AUTO 19004KT 10SM BKN026 BKN055 OVC090 20/20 A2994 RMK AO2 LTG DSNT ALQDS TSE1158B00E21RAE17 P0000
KCIU 171200Z AUTO 00000KT 7SM +TSRA BKN028 OVC040 21/19 A2995 RMK AO2 LTG DSNT ALQDS TSE1158B00 P0000
KCIU 171156Z AUTO VRB03KT 10SM TSRA BKN028 OVC040 20/19 A2995 RMK AO2 LTG DSNT ALQDS SLP157 6//// 7//// T02000194 10200 20156 53004
KCIU 171134Z AUTO 03004KT 9SM +TSRA SCT005 BKN038 OVC075 20/19 A2994 RMK AO2 LTG DSNT ALQDS
KCIU 171125Z AUTO 34012KT 9SM TSRA BKN005 BKN041 OVC095 19/19 A2996 RMK AO2 LTG DSNT ALQDS CIG 004V023
KCIU 171118Z AUTO 36008KT 5SM TSRA BR SCT005 BKN023 OVC095 18/18 A2995 RMK AO2 LTG DSNT ALQDS
KCIU 171106Z AUTO 00000KT 2 1/2SM +TSRA BR FEW009 BKN055 OVC120 18/18 A2994 RMK AO2 VIS 1/2V5 LTG DSNT ALQDS
KCIU 171056Z AUTO 29007KT 6SM VCTS RA BR SCT047 BKN055 OVC070 17/17 A2995 RMK AO2 LTG DSNT ALQDS TSB51RAB26 SLP157 T01720167 PNO $
KCIU 170956Z AUTO 16008KT 10SM BKN049 17/16 A2992 RMK AO2 LTG DSNT SW-NW SLP148 T01670156 PNO $
KCIU 170856Z AUTO 13006KT 10SM CLR 17/16 A2994 RMK AO2 SLP155 6//// T01670156 58001 PNO $
KCIU 170756Z AUTO 11005KT 10SM CLR 17/15 A2995 RMK AO2 SLP158 T01670150 PNO $
KCIU 170656Z AUTO 16004KT 8SM CLR 16/15 A2995 RMK AO2 SLP159 T01560150 PNO $
KCIU 170556Z AUTO 13007KT 10SM CLR 16/15 A2994 RMK AO2 SLP157 6//// T01610150 10233 20156 56012 PNO $
KCIU 170456Z AUTO 12004KT 10SM CLR 17/16 A2995 RMK AO2 SLP158 T01720156 402440144 PNO $
KCIU 170356Z AUTO 14008KT 10SM CLR 17/16 A2996 RMK AO2 PRESFR SLP165 T01670156 PNO $